Vaughn, Montana
Current Conditions -  °F | °C
As of 10:53 AM on Friday 24 Oct 2014 (Local Time) from KGTF Reporting Station
Clear Clear  
Wind Chill: 54°   Ceiling: Unl
Heat Index: 54°   Visibility: 10mi
Dew Point: 32°   Wind: 17mph
Humidity: 43%   Direction: 220°SW
Pressure: 30.05"   Gusts: NA
Location:  47.56°N, 111.55°W
Report Text: KGTF 241653Z 22015KT 10SM CLR 12/00 A3005 RMK AO2 SLP176 T01220000
Loading
Personal Weather Stations






























Interactive Weather Map
Tropical Storm Tracking
New forecast layout! Learn more

10-Day Weather Forecast

Advertisements
Track Severe Weather on mobile